createdAt,value
2024-05-09T00:06:11.362Z,101467.41
2024-05-09T00:21:14.508Z,101475.15
2024-05-09T00:36:17.458Z,101467.48
2024-05-09T00:51:20.421Z,101466.52
2024-05-09T01:06:23.359Z,101473.08
2024-05-09T01:21:26.460Z,101466.76
2024-05-09T01:36:29.411Z,101471.85
2024-05-09T01:51:32.213Z,101475.16
2024-05-09T02:06:42.465Z,101470.91
2024-05-09T02:21:45.643Z,101474.66
2024-05-09T02:36:48.670Z,101486.38
2024-05-09T02:51:51.653Z,101489.63
2024-05-09T03:06:54.746Z,101496.08
2024-05-09T03:21:58.806Z,101487.27
2024-05-09T03:37:01.908Z,101498.77
2024-05-09T03:52:05.342Z,101494.34
2024-05-09T04:07:08.188Z,101488.41
2024-05-09T04:22:11.161Z,101491.67
2024-05-09T04:37:14.402Z,101494.67
2024-05-09T04:52:17.200Z,101500.35
2024-05-09T05:07:19.957Z,101505.63
2024-05-09T05:22:23.159Z,101508.74
2024-05-09T05:37:26.307Z,101505.14
2024-05-09T05:52:29.209Z,101508.39
2024-05-09T06:07:31.988Z,101509.02
2024-05-09T06:22:35.430Z,101509.48
2024-05-09T06:37:39.540Z,101506.32
2024-05-09T06:52:42.750Z,101496.39
2024-05-09T07:07:45.768Z,101483.20
2024-05-09T07:22:48.829Z,101467.75
2024-05-09T07:37:52.192Z,101458.69
2024-05-09T08:08:01.491Z,101446.33
2024-05-09T08:23:04.814Z,101438.73
2024-05-09T08:38:08.205Z,101437.55
2024-05-09T08:53:11.367Z,101439.96
2024-05-09T09:08:15.946Z,101432.70
2024-05-09T09:23:20.115Z,101421.02
2024-05-09T09:38:23.815Z,101407.51
2024-05-09T09:53:28.323Z,101398.72
2024-05-09T10:08:31.549Z,101388.04
2024-05-09T10:23:36.304Z,101383.73
2024-05-09T10:38:43.310Z,101368.46
2024-05-09T10:53:48.134Z,101363.58
2024-05-09T11:08:51.579Z,101359.89
2024-05-09T11:23:54.973Z,101342.40
2024-05-09T11:38:58.197Z,101327.15
2024-05-09T11:54:01.444Z,101313.73
2024-05-09T12:09:04.443Z,101301.85
2024-05-09T12:24:07.561Z,101286.17
2024-05-09T12:39:11.090Z,101275.36
2024-05-09T12:54:14.386Z,101266.15
2024-05-09T13:09:17.518Z,101250.40
2024-05-09T13:24:20.420Z,101232.88
2024-05-09T13:39:23.355Z,101219.60
2024-05-09T13:54:26.484Z,101205.87
2024-05-09T14:09:29.580Z,101190.09
2024-05-09T14:24:33.174Z,101173.55
2024-05-09T14:39:36.398Z,101156.09
2024-05-09T14:54:39.570Z,101132.56
2024-05-09T15:09:42.661Z,101110.11
2024-05-09T15:24:47.882Z,101096.40
2024-05-09T15:39:51.086Z,101086.05
2024-05-09T15:54:54.112Z,101073.55
2024-05-09T16:09:57.053Z,101063.48
2024-05-09T16:25:00.238Z,101061.71
2024-05-09T16:40:04.511Z,101043.44
2024-05-09T16:55:08.942Z,101037.64
2024-05-09T17:10:19.359Z,101031.54
2024-05-09T17:25:29.485Z,101023.55
2024-05-09T17:40:36.472Z,101004.99
2024-05-09T17:55:41.874Z,100998.22
2024-05-09T18:10:45.315Z,101000.82
2024-05-09T18:25:48.653Z,101009.55
2024-05-09T18:40:53.131Z,101015.98
2024-05-09T18:55:57.763Z,101021.86
2024-05-09T19:11:02.130Z,101027.35
2024-05-09T19:26:05.996Z,101021.33
2024-05-09T19:41:09.187Z,101018.41
2024-05-09T19:56:12.509Z,101021.73
2024-05-09T20:11:15.792Z,101021.98
2024-05-09T20:26:18.664Z,101027.50
2024-05-09T20:41:21.504Z,101023.01
2024-05-09T20:56:24.775Z,101011.31
2024-05-09T21:11:27.757Z,101005.02
2024-05-09T21:26:31.015Z,100999.73
2024-05-09T21:41:34.395Z,100993.09
2024-05-09T21:56:37.385Z,100995.66
2024-05-09T22:11:40.232Z,101018.46
2024-05-09T22:26:43.312Z,101009.46
2024-05-09T22:41:46.322Z,100993.90
2024-05-09T22:56:49.156Z,100993.31
2024-05-09T23:11:52.456Z,100994.95
2024-05-09T23:26:55.593Z,100982.38
2024-05-09T23:41:58.401Z,100976.36
2024-05-09T23:57:01.202Z,100967.27
